Time;durP1;ratioP1;P1;durP2;ratioP2;P2;SDS_P1;SDS_P2;PMS_P1;PMS_P2;Temp;Humidity;BMP_temperature;BMP_pressure;BME280_temperature;BME280_humidity;BME280_pressure;Samples;Min_cycle;Max_cycle;Signal;HPM_P1;HPM_P2
2022/07/22 00:00:16;;;;;;;13.10;4.23;;;17.70;97.80;;;;;;5117923;28;20175;-81
2022/07/22 00:02:42;;;;;;;8.23;3.30;;;17.70;98.50;;;;;;5082464;28;20186;-82
2022/07/22 00:05:10;;;;;;;11.97;4.13;;;17.60;98.90;;;;;;5098994;28;20179;-81
2022/07/22 00:07:37;;;;;;;14.10;4.10;;;17.60;98.90;;;;;;5098900;28;20214;-82
2022/07/22 00:10:04;;;;;;;11.80;3.87;;;17.60;98.70;;;;;;5098642;28;20182;-83
2022/07/22 00:12:29;;;;;;;10.43;3.67;;;17.60;99.00;;;;;;5099029;28;20170;-83
2022/07/22 00:14:55;;;;;;;10.80;4.23;;;17.60;98.90;;;;;;5099356;28;20665;-82
2022/07/22 00:17:21;;;;;;;11.87;3.87;;;17.60;99.00;;;;;;5117052;28;20167;-83
2022/07/22 00:19:47;;;;;;;10.27;4.00;;;17.50;99.40;;;;;;5098462;28;20697;-83
2022/07/22 00:22:12;;;;;;;11.97;4.03;;;17.70;98.90;;;;;;5098626;28;20186;-82
2022/07/22 00:24:38;;;;;;;10.67;4.20;;;17.70;98.20;;;;;;5082117;28;20186;-82
2022/07/22 00:27:04;;;;;;;13.70;4.80;;;17.70;98.60;;;;;;5099176;28;20652;-85
2022/07/22 00:29:29;;;;;;;10.80;4.30;;;17.80;98.40;;;;;;5116990;28;20704;-83
2022/07/22 00:31:55;;;;;;;10.77;3.80;;;17.70;98.20;;;;;;5098827;28;20178;-83
2022/07/22 00:34:21;;;;;;;9.93;3.97;;;17.60;98.20;;;;;;5098595;28;20662;-83
2022/07/22 00:36:46;;;;;;;15.93;4.63;;;17.60;99.00;;;;;;5098263;28;20179;-84
2022/07/22 00:39:15;;;;;;;13.50;4.10;;;17.60;99.30;;;;;;5098070;28;20180;-83
2022/07/22 00:41:40;;;;;;;8.47;3.80;;;17.60;99.10;;;;;;5116237;28;20236;-84
2022/07/22 00:44:08;;;;;;;10.20;4.00;;;17.50;99.10;;;;;;5098842;28;20238;-82
2022/07/22 00:46:36;;;;;;;13.13;4.33;;;17.50;99.90;;;;;;5098831;28;20220;-84
2022/07/22 00:49:04;;;;;;;12.63;3.70;;;17.60;99.40;;;;;;5116764;28;20211;-83
2022/07/22 00:51:30;;;;;;;11.03;4.13;;;17.70;98.80;;;;;;5116412;28;20179;-83
2022/07/22 00:53:56;;;;;;;12.07;4.10;;;17.60;98.40;;;;;;5097559;28;20197;-82
2022/07/22 00:56:24;;;;;;;10.37;4.00;;;17.50;98.90;;;;;;5098049;28;20171;-81
2022/07/22 00:58:52;;;;;;;11.87;4.33;;;17.30;99.90;;;;;;5098632;28;20680;-82
2022/07/22 01:01:18;;;;;;;11.43;3.97;;;17.30;99.90;;;;;;5098480;28;20655;-82
2022/07/22 01:03:44;;;;;;;14.87;4.50;;;17.30;99.90;;;;;;5098082;28;20177;-83
2022/07/22 01:06:10;;;;;;;9.97;4.23;;;17.20;99.90;;;;;;5080729;28;20275;-82
2022/07/22 01:08:38;;;;;;;12.47;4.43;;;17.20;99.90;;;;;;5098006;28;20203;-82
2022/07/22 01:11:12;;;;;;;11.83;4.70;;;17.20;99.90;;;;;;5097746;28;20257;-82
2022/07/22 01:13:40;;;;;;;10.17;4.40;;;17.20;99.90;;;;;;5097941;28;20189;-82
2022/07/22 01:16:07;;;;;;;13.07;4.60;;;17.40;99.90;;;;;;5115816;28;20208;-82
2022/07/22 01:18:33;;;;;;;12.77;4.20;;;17.30;99.90;;;;;;5116535;28;20195;-82
2022/07/22 01:20:59;;;;;;;13.03;4.43;;;17.20;99.90;;;;;;5097780;28;20533;-82
2022/07/22 01:23:25;;;;;;;11.93;4.23;;;17.20;99.90;;;;;;5099489;28;20168;-83
2022/07/22 01:25:51;;;;;;;13.50;5.10;;;17.20;99.90;;;;;;5117029;28;20171;-82
2022/07/22 01:28:17;;;;;;;11.67;4.07;;;17.30;99.90;;;;;;5118473;28;20210;-82
2022/07/22 01:30:42;;;;;;;11.00;4.10;;;17.40;99.90;;;;;;5107943;28;20269;-82
2022/07/22 01:33:08;;;;;;;11.53;4.10;;;17.40;99.90;;;;;;5121636;28;20202;-82
2022/07/22 01:35:35;;;;;;;11.53;4.00;;;17.40;99.80;;;;;;5107509;28;20228;-81
2022/07/22 01:38:01;;;;;;;11.17;4.17;;;17.30;99.90;;;;;;5139652;28;20182;-82
2022/07/22 01:40:28;;;;;;;9.70;4.90;;;17.20;99.90;;;;;;5104147;28;20587;-82
2022/07/22 01:42:57;;;;;;;11.60;4.40;;;17.10;99.90;;;;;;5117896;28;20674;-82
2022/07/22 01:45:28;;;;;;;9.57;4.40;;;17.10;99.90;;;;;;5115736;28;20562;-82
2022/07/22 01:47:54;;;;;;;13.33;5.20;;;17.10;99.90;;;;;;5097801;28;20206;-82
2022/07/22 01:50:20;;;;;;;12.33;5.10;;;17.10;99.90;;;;;;5098398;28;20678;-83
2022/07/22 01:52:46;;;;;;;13.17;4.43;;;17.10;99.90;;;;;;5097237;28;20194;-82
2022/07/22 01:55:12;;;;;;;10.90;4.40;;;17.10;99.90;;;;;;5109604;28;20159;-82
2022/07/22 01:57:39;;;;;;;13.27;4.70;;;17.10;99.90;;;;;;5122148;28;20640;-81
2022/07/22 02:00:11;;;;;;;12.73;4.83;;;17.10;99.90;;;;;;5123082;28;20179;-82
2022/07/22 02:02:39;;;;;;;11.10;4.40;;;17.20;99.90;;;;;;5099977;28;20248;-83
2022/07/22 02:05:06;;;;;;;11.87;4.50;;;17.10;99.90;;;;;;5096769;28;20236;-81
2022/07/22 02:07:32;;;;;;;13.63;5.33;;;17.20;99.90;;;;;;5096675;28;20167;-82
2022/07/22 02:09:58;;;;;;;12.73;5.00;;;17.10;99.90;;;;;;5097662;28;20643;-82
2022/07/22 02:12:24;;;;;;;11.93;4.37;;;17.10;99.90;;;;;;5112486;28;20151;-81
2022/07/22 02:14:50;;;;;;;12.33;4.17;;;17.10;99.90;;;;;;5119573;28;20191;-82
2022/07/22 02:17:16;;;;;;;12.43;4.33;;;17.00;99.90;;;;;;5118317;28;20197;-83
2022/07/22 02:19:42;;;;;;;9.37;4.10;;;17.10;99.90;;;;;;5112363;28;20667;-81
2022/07/22 02:22:10;;;;;;;14.73;4.90;;;17.10;99.90;;;;;;5096702;28;20246;-81
2022/07/22 02:24:41;;;;;;;11.27;4.60;;;17.00;99.90;;;;;;5096646;28;20228;-82
2022/07/22 02:27:07;;;;;;;16.53;4.73;;;16.90;99.90;;;;;;5097613;28;20170;-83
2022/07/22 02:29:33;;;;;;;7.43;4.10;;;17.00;99.90;;;;;;5136689;28;20200;-81
2022/07/22 02:31:59;;;;;;;13.17;4.90;;;17.00;99.90;;;;;;5138283;28;20171;-81
2022/07/22 02:34:25;;;;;;;14.60;5.20;;;17.00;99.90;;;;;;5120909;28;20244;-81
2022/07/22 02:36:51;;;;;;;12.37;4.37;;;17.00;99.90;;;;;;5121973;28;20154;-82
2022/07/22 02:39:20;;;;;;;11.07;4.60;;;17.00;99.90;;;;;;5122019;28;20254;-81
2022/07/22 02:41:53;;;;;;;18.30;4.87;;;16.90;99.90;;;;;;5139475;28;20242;-81
2022/07/22 02:44:22;;;;;;;11.60;4.53;;;16.90;99.90;;;;;;5109120;28;20316;-83
2022/07/22 02:47:10;;;;;;;16.07;5.10;;;16.90;99.90;;;;;;5095951;28;20231;-83
2022/07/22 02:49:35;;;;;;;12.60;4.63;;;17.00;99.90;;;;;;5095596;28;20202;-82
2022/07/22 02:52:01;;;;;;;11.10;4.40;;;16.90;99.90;;;;;;5095939;28;20167;-83
2022/07/22 02:54:27;;;;;;;13.17;5.47;;;16.80;99.90;;;;;;5095749;28;20628;-82
2022/07/22 02:56:52;;;;;;;12.40;4.83;;;16.80;99.90;;;;;;5095808;28;20178;-82
2022/07/22 02:59:19;;;;;;;11.80;4.90;;;16.70;99.90;;;;;;5113842;28;20190;-82
2022/07/22 03:01:45;;;;;;;10.83;4.60;;;16.70;99.90;;;;;;5114092;28;20160;-82
2022/07/22 03:04:10;;;;;;;11.30;5.33;;;16.60;99.90;;;;;;5097792;28;20178;-82
2022/07/22 03:06:37;;;;;;;11.60;5.00;;;16.60;99.90;;;;;;5127070;28;20170;-82
2022/07/22 03:09:04;;;;;;;11.13;5.50;;;16.60;99.90;;;;;;5117686;28;20218;-82
2022/07/22 03:11:33;;;;;;;15.53;5.33;;;16.60;99.90;;;;;;5095592;28;20173;-82
2022/07/22 03:13:58;;;;;;;15.93;5.90;;;16.70;99.90;;;;;;5095788;28;20181;-82
2022/07/22 03:16:24;;;;;;;13.37;5.97;;;16.70;99.90;;;;;;5095722;28;20651;-82
2022/07/22 03:18:49;;;;;;;18.03;5.73;;;16.90;99.90;;;;;;5113565;28;20548;-82
2022/07/22 03:21:15;;;;;;;13.27;5.47;;;16.70;99.90;;;;;;5095856;28;20554;-82
2022/07/22 03:23:42;;;;;;;13.60;6.60;;;16.70;99.90;;;;;;5095638;28;20182;-82
2022/07/22 03:26:08;;;;;;;12.90;6.03;;;16.60;99.90;;;;;;5095706;28;20171;-82
2022/07/22 03:28:33;;;;;;;13.10;5.87;;;16.60;99.90;;;;;;5113849;28;20210;-82
2022/07/22 03:30:59;;;;;;;12.37;6.43;;;16.60;99.90;;;;;;5114000;28;20165;-82
2022/07/22 03:33:25;;;;;;;13.73;6.00;;;16.60;99.90;;;;;;5113562;28;20555;-81
2022/07/22 03:35:51;;;;;;;11.60;5.90;;;16.60;99.90;;;;;;5095323;28;20181;-81
2022/07/22 03:38:17;;;;;;;10.63;5.60;;;16.60;99.90;;;;;;5113523;28;20175;-81
2022/07/22 03:40:43;;;;;;;13.57;6.20;;;16.50;99.90;;;;;;5113517;28;20760;-82
2022/07/22 03:43:08;;;;;;;13.30;5.97;;;16.50;99.90;;;;;;5095130;28;20194;-82
2022/07/22 03:45:34;;;;;;;13.20;6.13;;;16.50;99.90;;;;;;5095140;28;20627;-83
2022/07/22 03:48:00;;;;;;;12.17;5.53;;;16.40;99.90;;;;;;5113577;28;20195;-82
2022/07/22 03:50:26;;;;;;;12.90;5.33;;;16.40;99.90;;;;;;5099088;28;20223;-82
2022/07/22 03:52:51;;;;;;;16.07;5.80;;;16.30;99.90;;;;;;5101220;28;20218;-82
2022/07/22 03:55:17;;;;;;;10.00;5.53;;;16.30;99.90;;;;;;5118265;28;20246;-82
2022/07/22 03:57:43;;;;;;;10.20;5.63;;;16.20;99.90;;;;;;5095254;28;20306;-81
2022/07/22 04:00:09;;;;;;;14.37;6.20;;;16.20;99.90;;;;;;5095851;28;20180;-82
2022/07/22 04:02:35;;;;;;;13.40;6.60;;;16.20;99.90;;;;;;5113175;28;20213;-81
2022/07/22 04:05:00;;;;;;;11.30;5.00;;;16.30;99.90;;;;;;5094762;28;20178;-83
2022/07/22 04:07:27;;;;;;;13.50;5.30;;;16.30;99.90;;;;;;5095152;28;20635;-83
2022/07/22 04:10:04;;;;;;;12.13;5.23;;;16.30;99.90;;;;;;5095243;28;20183;-82
2022/07/22 04:12:36;;;;;;;11.87;4.90;;;16.30;99.90;;;;;;5094695;28;20162;-82
2022/07/22 04:15:06;;;;;;;10.77;5.27;;;16.40;99.90;;;;;;5095297;28;20177;-81
2022/07/22 04:17:32;;;;;;;9.87;4.60;;;16.50;99.90;;;;;;5121791;28;20157;-82
2022/07/22 04:19:59;;;;;;;13.50;4.97;;;16.70;99.90;;;;;;5141279;28;20245;-83
2022/07/22 04:22:25;;;;;;;10.40;4.40;;;16.60;99.90;;;;;;5124984;28;20310;-80
2022/07/22 04:24:52;;;;;;;13.10;4.50;;;16.60;99.90;;;;;;5099920;28;20631;-80
2022/07/22 04:27:19;;;;;;;12.50;5.00;;;16.60;99.90;;;;;;5116820;28;20242;-82
2022/07/22 04:29:45;;;;;;;12.23;4.60;;;16.50;99.90;;;;;;5116564;28;20600;-82
2022/07/22 04:32:10;;;;;;;11.57;4.30;;;16.50;99.90;;;;;;5116967;28;20193;-82
2022/07/22 04:34:36;;;;;;;10.33;5.03;;;16.50;99.90;;;;;;5098340;28;20501;-82
2022/07/22 04:37:02;;;;;;;14.17;4.63;;;16.60;99.90;;;;;;5087974;28;20153;-80
2022/07/22 04:39:28;;;;;;;12.23;4.37;;;16.60;99.90;;;;;;5118160;28;20166;-81
2022/07/22 04:41:54;;;;;;;11.63;4.97;;;16.60;99.90;;;;;;5125456;28;20176;-81
2022/07/22 04:44:20;;;;;;;10.50;4.77;;;16.60;99.90;;;;;;5115393;28;20198;-84
2022/07/22 04:46:46;;;;;;;12.40;4.20;;;16.60;99.90;;;;;;5116290;28;20165;-81
2022/07/22 04:49:12;;;;;;;14.27;5.80;;;16.60;99.90;;;;;;5116627;28;20282;-82
2022/07/22 04:51:38;;;;;;;10.10;4.90;;;16.60;99.90;;;;;;5097802;28;20283;-82
2022/07/22 04:54:04;;;;;;;14.40;5.90;;;16.70;99.90;;;;;;5098427;28;20528;-82
2022/07/22 04:56:30;;;;;;;12.83;4.90;;;16.80;99.90;;;;;;5097756;28;20270;-83
2022/07/22 04:58:55;;;;;;;10.40;5.27;;;16.90;99.90;;;;;;5097778;28;20177;-82
2022/07/22 05:01:21;;;;;;;12.17;4.87;;;16.90;99.90;;;;;;5097799;28;20243;-83
2022/07/22 05:03:47;;;;;;;12.57;5.07;;;17.20;99.90;;;;;;5097624;28;20192;-80
2022/07/22 05:06:13;;;;;;;10.23;4.83;;;17.20;99.90;;;;;;5116342;28;20225;-80
2022/07/22 05:08:39;;;;;;;14.13;5.47;;;17.20;99.70;;;;;;5115819;28;20209;-80
2022/07/22 05:11:06;;;;;;;12.57;5.70;;;17.30;98.90;;;;;;5115962;28;20174;-81
2022/07/22 05:13:31;;;;;;;12.63;5.17;;;17.40;99.00;;;;;;5097315;28;20738;-80
2022/07/22 05:16:01;;;;;;;13.27;5.37;;;17.30;99.60;;;;;;5097274;28;20179;-82
2022/07/22 05:18:27;;;;;;;15.20;5.20;;;17.30;99.10;;;;;;5081021;28;20297;-81
2022/07/22 05:20:52;;;;;;;12.37;5.27;;;17.40;99.70;;;;;;5097574;28;20207;-81
2022/07/22 05:23:18;;;;;;;13.73;5.50;;;17.40;98.60;;;;;;5115395;28;20243;-81
2022/07/22 05:25:44;;;;;;;13.50;5.63;;;17.40;98.60;;;;;;5097514;28;20633;-81
2022/07/22 05:28:09;;;;;;;14.87;5.97;;;17.60;98.80;;;;;;5114918;28;20199;-83
2022/07/22 05:30:35;;;;;;;14.03;5.93;;;17.80;97.80;;;;;;5097340;28;20193;-82
2022/07/22 05:33:01;;;;;;;16.70;6.20;;;17.90;96.50;;;;;;5134987;28;20155;-81
2022/07/22 05:35:27;;;;;;;13.17;5.13;;;18.00;96.70;;;;;;5118889;28;20179;-81
2022/07/22 05:37:52;;;;;;;18.20;6.10;;;18.10;95.60;;;;;;5128916;28;20175;-82
2022/07/22 05:40:20;;;;;;;15.17;5.50;;;18.20;94.80;;;;;;5122567;28;20690;-83
2022/07/22 05:42:46;;;;;;;11.20;5.03;;;18.30;93.50;;;;;;5096841;28;20260;-83
2022/07/22 05:45:11;;;;;;;13.63;5.43;;;18.30;93.10;;;;;;5115427;28;20271;-84
2022/07/22 05:47:38;;;;;;;13.33;5.73;;;18.30;92.60;;;;;;5115124;28;20576;-82
2022/07/22 05:50:04;;;;;;;16.27;5.87;;;18.20;93.90;;;;;;5115427;28;20639;-80
2022/07/22 05:52:30;;;;;;;14.77;6.10;;;18.20;94.60;;;;;;5096717;28;20244;-81
2022/07/22 05:55:00;;;;;;;12.00;5.73;;;18.20;94.00;;;;;;5123251;28;20162;-81
2022/07/22 05:57:26;;;;;;;13.87;6.70;;;18.20;94.30;;;;;;5140045;28;20235;-80
2022/07/22 05:59:51;;;;;;;16.30;6.17;;;18.20;94.70;;;;;;5116733;28;20656;-82
2022/07/22 06:02:17;;;;;;;14.23;6.13;;;18.40;93.90;;;;;;5128973;28;20200;-81
2022/07/22 06:04:43;;;;;;;16.00;6.20;;;18.40;92.50;;;;;;5124108;28;20692;-82
2022/07/22 06:07:18;;;;;;;16.17;7.33;;;18.40;92.60;;;;;;5115545;28;20255;-82
2022/07/22 06:09:44;;;;;;;14.07;6.57;;;18.50;92.40;;;;;;5122594;28;20198;-81
2022/07/22 06:12:11;;;;;;;14.53;6.70;;;18.50;92.00;;;;;;5120118;28;20597;-82
2022/07/22 06:14:37;;;;;;;15.07;6.80;;;18.70;91.50;;;;;;5116800;28;20222;-81
2022/07/22 06:17:03;;;;;;;14.37;6.83;;;18.70;90.10;;;;;;5118118;28;20618;-82
2022/07/22 06:19:30;;;;;;;12.13;6.57;;;18.70;90.60;;;;;;5121884;28;20222;-81
2022/07/22 06:21:56;;;;;;;14.87;7.33;;;18.60;88.50;;;;;;5120162;28;20168;-81
2022/07/22 06:24:23;;;;;;;11.80;6.70;;;18.60;90.80;;;;;;5132619;28;20658;-83
2022/07/22 06:27:16;;;;;;;14.93;7.90;;;18.60;87.60;;;;;;5102480;28;20168;-82
2022/07/22 06:29:51;;;;;;;11.50;6.33;;;18.70;86.90;;;;;;5101308;28;20286;-82
2022/07/22 06:32:16;;;;;;;9.83;6.33;;;18.60;83.90;;;;;;5097374;28;20157;-82
2022/07/22 06:34:43;;;;;;;12.60;6.37;;;18.60;81.80;;;;;;5097172;28;20768;-83
2022/07/22 06:37:09;;;;;;;10.90;6.63;;;18.50;81.60;;;;;;5097107;28;20175;-83
2022/07/22 06:39:35;;;;;;;8.80;5.30;;;18.50;75.00;;;;;;5114555;27;20161;-82
2022/07/22 06:42:00;;;;;;;10.83;5.97;;;18.80;76.30;;;;;;5096205;28;20171;-82
2022/07/22 06:44:26;;;;;;;12.07;6.33;;;18.90;74.80;;;;;;5096366;28;20667;-82
2022/07/22 06:46:52;;;;;;;10.47;5.13;;;19.00;75.60;;;;;;5096222;28;20279;-83
2022/07/22 06:49:17;;;;;;;9.27;4.90;;;19.00;67.50;;;;;;5096163;28;20293;-83
2022/07/22 06:51:43;;;;;;;10.80;5.40;;;18.90;68.40;;;;;;5114110;28;20194;-83
2022/07/22 06:54:09;;;;;;;10.37;5.17;;;18.90;68.80;;;;;;5095912;28;20280;-83
2022/07/22 06:56:34;;;;;;;9.03;4.40;;;19.00;64.40;;;;;;5114145;28;20173;-83
2022/07/22 06:59:00;;;;;;;8.80;4.77;;;19.10;63.70;;;;;;5097811;28;20177;-82
2022/07/22 07:01:26;;;;;;;10.13;5.83;;;19.20;57.90;;;;;;5112653;28;20166;-81
2022/07/22 07:03:52;;;;;;;11.67;5.37;;;19.20;60.00;;;;;;5110826;28;20184;-82
2022/07/22 07:06:17;;;;;;;13.03;5.33;;;19.10;61.10;;;;;;5097653;28;20178;-82
2022/07/22 07:08:43;;;;;;;13.07;5.50;;;19.00;60.80;;;;;;5114859;28;20290;-81
2022/07/22 07:11:09;;;;;;;11.00;5.93;;;19.10;59.40;;;;;;5096410;28;20195;-83
2022/07/22 07:13:35;;;;;;;7.67;5.10;;;19.20;58.40;;;;;;5114904;28;20201;-83
2022/07/22 07:16:00;;;;;;;7.77;4.27;;;19.30;56.20;;;;;;5098135;28;20176;-83
2022/07/22 07:18:26;;;;;;;9.40;4.57;;;19.10;52.30;;;;;;5098023;28;20204;-82
2022/07/22 07:20:51;;;;;;;7.00;4.60;;;18.90;53.70;;;;;;5113671;28;20178;-82
2022/07/22 07:23:18;;;;;;;11.53;4.80;;;18.90;55.50;;;;;;5117495;28;20237;-82
2022/07/22 07:25:45;;;;;;;9.23;4.10;;;18.90;50.70;;;;;;5114753;28;20236;-83
2022/07/22 07:28:12;;;;;;;6.63;4.17;;;18.90;50.50;;;;;;5110357;28;20201;-83
2022/07/22 07:30:37;;;;;;;7.83;4.60;;;18.90;49.10;;;;;;5114042;28;20194;-83
2022/07/22 07:33:03;;;;;;;9.20;4.67;;;19.00;48.60;;;;;;5096267;28;20172;-82
2022/07/22 07:35:32;;;;;;;9.00;5.27;;;19.10;47.10;;;;;;5095755;28;20172;-83
2022/07/22 07:37:58;;;;;;;7.80;4.60;;;19.10;46.60;;;;;;5095387;28;20180;-83
2022/07/22 07:40:24;;;;;;;8.87;4.60;;;19.30;43.90;;;;;;5095694;28;20216;-83
2022/07/22 07:42:50;;;;;;;9.27;4.83;;;19.40;40.30;;;;;;5095450;28;20172;-83
2022/07/22 07:45:15;;;;;;;6.37;4.10;;;19.50;37.80;;;;;;5113785;28;20306;-83
2022/07/22 07:47:41;;;;;;;8.13;4.37;;;19.30;38.60;;;;;;5114261;28;20161;-83
2022/07/22 07:50:08;;;;;;;9.27;4.03;;;19.10;36.20;;;;;;5095943;28;20290;-83
2022/07/22 07:52:41;;;;;;;9.80;5.00;;;19.10;40.90;;;;;;5099712;28;20189;-83
2022/07/22 07:55:08;;;;;;;10.07;4.43;;;19.30;40.80;;;;;;5117856;28;20165;-83
2022/07/22 07:57:35;;;;;;;8.60;4.90;;;19.40;34.70;;;;;;5099706;28;20619;-81
2022/07/22 08:00:04;;;;;;;7.40;4.67;;;19.40;34.30;;;;;;5110325;28;20193;-81
2022/07/22 08:02:30;;;;;;;7.40;4.70;;;19.40;34.40;;;;;;5126685;28;20165;-83
2022/07/22 08:05:08;;;;;;;10.77;4.70;;;19.30;34.50;;;;;;5117996;28;20205;-83
2022/07/22 08:07:34;;;;;;;6.90;4.27;;;19.40;30.60;;;;;;5117253;28;20247;-83
2022/07/22 08:10:00;;;;;;;7.73;4.37;;;19.40;34.50;;;;;;5099263;28;20181;-82
2022/07/22 08:12:26;;;;;;;12.00;4.40;;;19.40;33.40;;;;;;5099292;28;20241;-81
2022/07/22 08:14:52;;;;;;;7.27;4.27;;;19.70;36.00;;;;;;5099266;28;20262;-84
2022/07/22 08:17:18;;;;;;;6.63;3.83;;;19.90;29.20;;;;;;5117657;28;20168;-83
2022/07/22 08:19:44;;;;;;;8.93;4.40;;;19.80;28.70;;;;;;5098858;28;20205;-82
2022/07/22 08:22:09;;;;;;;8.70;4.77;;;19.90;30.40;;;;;;5098683;28;20174;-82
2022/07/22 08:24:35;;;;;;;7.63;4.37;;;20.10;26.70;;;;;;5116876;28;20241;-83
2022/07/22 08:27:02;;;;;;;9.43;4.60;;;20.10;25.60;;;;;;5104113;28;20185;-83
2022/07/22 08:29:27;;;;;;;8.50;5.00;;;20.20;26.30;;;;;;5122829;28;20210;-82
2022/07/22 08:31:53;;;;;;;8.60;4.60;;;20.10;23.80;;;;;;5105752;28;20282;-83
2022/07/22 08:34:20;;;;;;;7.73;4.87;;;20.10;23.00;;;;;;5099003;28;20178;-83
2022/07/22 08:36:46;;;;;;;7.57;5.03;;;19.80;28.20;;;;;;5098448;28;20171;-82
2022/07/22 08:39:12;;;;;;;8.13;4.80;;;20.00;25.80;;;;;;5117375;28;20522;-84
2022/07/22 08:41:39;;;;;;;8.33;4.53;;;20.10;24.90;;;;;;5116855;28;20196;-82
2022/07/22 08:44:07;;;;;;;10.10;4.73;;;20.10;14.20;;;;;;5098948;28;20243;-81
2022/07/22 08:46:33;;;;;;;9.00;4.63;;;20.10;9.00;;;;;;5127894;27;20198;-82
2022/07/22 08:49:01;;;;;;;7.30;4.50;;;20.20;1.00;;;;;;5099319;28;20613;-82
2022/07/22 08:51:28;;;;;;;10.10;5.00;;;20.10;1.00;;;;;;5099855;28;20171;-82
2022/07/22 08:53:54;;;;;;;9.13;5.13;;;19.90;1.60;;;;;;5117465;28;20244;-82
2022/07/22 08:56:20;;;;;;;9.70;4.80;;;20.00;1.00;;;;;;5118702;28;20175;-81
2022/07/22 08:58:46;;;;;;;9.50;6.37;;;19.90;1.00;;;;;;5121059;28;20220;-82
2022/07/22 09:01:15;;;;;;;8.33;4.77;;;19.90;1.00;;;;;;5133552;28;20159;-83
2022/07/22 09:03:52;;;;;;;10.70;5.37;;;20.00;1.00;;;;;;5101146;28;20574;-83
2022/07/22 09:06:24;;;;;;;11.27;5.50;;;20.20;1.00;;;;;;5116497;28;20538;-83
2022/07/22 09:08:54;;;;;;;9.70;4.87;;;20.30;1.00;;;;;;5098254;28;20198;-83
2022/07/22 09:11:22;;;;;;;6.27;4.43;;;20.50;1.00;;;;;;5098225;28;20621;-81
2022/07/22 09:13:49;;;;;;;6.17;4.27;;;20.60;1.00;;;;;;5098570;28;20545;-83
2022/07/22 09:16:15;;;;;;;8.60;5.33;;;20.70;1.00;;;;;;5116185;28;20175;-81
2022/07/22 09:18:49;;;;;;;7.27;4.70;;;21.00;1.00;;;;;;5125699;28;20178;-81
2022/07/22 09:21:14;;;;;;;8.80;5.10;;;21.00;1.00;;;;;;5122659;28;20226;-81
2022/07/22 09:23:41;;;;;;;7.83;4.83;;;20.90;1.00;;;;;;5119201;28;20646;-84
2022/07/22 09:26:08;;;;;;;7.43;4.67;;;20.90;1.00;;;;;;5108713;28;20176;-83
2022/07/22 09:28:38;;;;;;;7.57;4.83;;;21.00;1.00;;;;;;5102034;28;20747;-83
2022/07/22 09:31:22;;;;;;;8.97;4.97;;;20.80;1.00;;;;;;5098660;28;20194;-84
2022/07/22 09:33:49;;;;;;;6.23;4.47;;;20.90;1.00;;;;;;5116163;28;20234;-82
2022/07/22 09:36:16;;;;;;;8.10;4.87;;;20.60;1.00;;;;;;5099601;28;20176;-83
2022/07/22 09:38:41;;;;;;;6.77;4.93;;;20.70;1.00;;;;;;5109528;28;20189;-83
2022/07/22 09:41:07;;;;;;;7.60;4.40;;;20.90;1.00;;;;;;5112851;28;20210;-83
2022/07/22 09:43:36;;;;;;;5.80;3.80;;;20.90;1.00;;;;;;5099705;28;20206;-83
2022/07/22 09:46:03;;;;;;;9.43;4.93;;;21.10;1.00;;;;;;5123577;28;20183;-82
2022/07/22 09:48:29;;;;;;;6.50;4.27;;;21.20;1.00;;;;;;5139291;28;20209;-83
2022/07/22 09:50:56;;;;;;;5.33;4.20;;;21.20;1.00;;;;;;5119613;28;20189;-83
2022/07/22 09:53:29;;;;;;;7.33;4.50;;;21.10;1.00;;;;;;5109692;28;20635;-83
2022/07/22 09:56:17;;;;;;;6.77;4.53;;;21.00;1.00;;;;;;5116586;28;20240;-84
2022/07/22 09:58:42;;;;;;;6.00;4.33;;;21.00;1.00;;;;;;5099160;28;20179;-82
2022/07/22 10:01:10;;;;;;;5.60;4.10;;;20.90;1.00;;;;;;5101698;28;20175;-83
2022/07/22 10:03:37;;;;;;;7.00;3.90;;;21.10;1.00;;;;;;5119158;28;20177;-83
2022/07/22 10:06:04;;;;;;;7.70;4.10;;;21.20;1.00;;;;;;5112028;28;20157;-82
2022/07/22 10:08:33;;;;;;;7.33;4.30;;;21.30;1.00;;;;;;5121975;28;20198;-80
2022/07/22 10:11:04;;;;;;;7.10;4.57;;;21.30;1.00;;;;;;5122300;28;20160;-82
2022/07/22 10:13:31;;;;;;;4.70;3.83;;;21.40;1.00;;;;;;5139205;28;20293;-82
2022/07/22 10:15:58;;;;;;;7.90;4.80;;;21.40;1.00;;;;;;5139599;28;20183;-80
2022/07/22 10:19:08;;;;;;;6.93;4.57;;;21.30;1.00;;;;;;5121373;28;20242;-82
2022/07/22 10:21:34;;;;;;;9.33;4.90;;;21.50;1.00;;;;;;5118868;28;20153;-83
2022/07/22 10:24:14;;;;;;;9.50;4.70;;;21.60;1.00;;;;;;5098620;28;20189;-83
2022/07/22 10:26:50;;;;;;;8.63;4.77;;;21.40;1.00;;;;;;5102774;28;20171;-83
2022/07/22 10:29:33;;;;;;;6.83;4.63;;;21.40;1.00;;;;;;5122024;28;20196;-82
2022/07/22 10:32:17;;;;;;;5.70;4.10;;;21.40;1.00;;;;;;5116486;28;20213;-83
2022/07/22 10:35:03;;;;;;;5.57;4.00;;;21.80;1.00;;;;;;5098323;28;20285;-83
2022/07/22 10:37:37;;;;;;;8.30;4.40;;;22.00;1.00;;;;;;5082975;28;20203;-82
2022/07/22 10:40:12;;;;;;;6.37;3.80;;;21.80;1.00;;;;;;5099439;28;20185;-82
2022/07/22 10:42:56;;;;;;;6.27;4.00;;;21.70;1.00;;;;;;5097562;28;20248;-84
2022/07/22 10:45:27;;;;;;;7.47;3.97;;;21.80;1.00;;;;;;5119667;28;20176;-82
2022/07/22 10:47:59;;;;;;;9.47;4.40;;;21.70;1.00;;;;;;5103371;28;20195;-82
2022/07/22 10:50:35;;;;;;;8.20;4.00;;;21.90;1.00;;;;;;5098851;28;20175;-80
2022/07/22 10:53:01;;;;;;;7.60;4.20;;;22.00;1.00;;;;;;5105905;28;20177;-81
2022/07/22 10:55:27;;;;;;;5.57;4.07;;;22.30;1.00;;;;;;5103530;28;20173;-83
2022/07/22 10:57:53;;;;;;;9.83;4.53;;;22.20;1.00;;;;;;5107436;28;20177;-83
2022/07/22 11:00:19;;;;;;;6.37;4.10;;;22.40;1.00;;;;;;5099696;28;20605;-83
2022/07/22 11:02:46;;;;;;;6.37;4.30;;;22.50;1.00;;;;;;5116639;28;20170;-84
2022/07/22 11:05:11;;;;;;;7.03;4.40;;;22.40;1.00;;;;;;5099338;28;20268;-83
2022/07/22 11:07:48;;;;;;;6.67;4.23;;;22.10;1.00;;;;;;5115565;28;20208;-83
2022/07/22 11:10:16;;;;;;;8.20;5.40;;;21.90;1.00;;;;;;5098004;28;20179;-83
2022/07/22 11:12:43;;;;;;;6.13;4.37;;;21.90;1.00;;;;;;5097933;28;20174;-83
2022/07/22 11:15:09;;;;;;;7.07;4.70;;;22.00;1.00;;;;;;5099446;28;20172;-83
2022/07/22 11:17:36;;;;;;;6.17;4.67;;;22.00;1.00;;;;;;5131208;28;20182;-83
2022/07/22 11:20:13;;;;;;;9.60;4.57;;;22.10;1.00;;;;;;5118239;28;20186;-83
2022/07/22 11:22:40;;;;;;;6.83;4.60;;;22.10;1.00;;;;;;5097559;28;20253;-82
2022/07/22 11:25:12;;;;;;;6.90;4.70;;;22.10;1.00;;;;;;5097754;28;20176;-81
2022/07/22 11:27:38;;;;;;;8.93;4.73;;;22.10;1.00;;;;;;5100290;28;20176;-84
2022/07/22 11:30:06;;;;;;;6.80;4.90;;;22.20;1.00;;;;;;5102847;28;20172;-82
2022/07/22 11:32:40;;;;;;;7.97;4.40;;;22.40;1.00;;;;;;5101761;28;20175;-84
2022/07/22 11:35:11;;;;;;;6.93;4.60;;;22.70;1.00;;;;;;5101283;28;20217;-83
2022/07/22 11:37:37;;;;;;;8.33;4.83;;;23.10;1.00;;;;;;5101138;28;20253;-83
2022/07/22 11:40:05;;;;;;;8.57;4.73;;;23.20;1.00;;;;;;5102863;28;20205;-83
2022/07/22 11:42:31;;;;;;;9.97;4.53;;;23.10;1.00;;;;;;5101302;28;20182;-84
2022/07/22 11:44:58;;;;;;;8.13;4.70;;;23.10;1.00;;;;;;5117893;28;20555;-83
2022/07/22 11:47:23;;;;;;;10.43;5.27;;;23.20;1.00;;;;;;5099928;28;20597;-82
2022/07/22 11:49:49;;;;;;;7.57;5.20;;;23.30;1.00;;;;;;5122309;28;20259;-83
2022/07/22 11:52:16;;;;;;;9.73;4.90;;;23.20;1.00;;;;;;5120320;28;20265;-83
2022/07/22 11:54:43;;;;;;;8.67;4.57;;;23.30;1.00;;;;;;5101142;28;20252;-83
2022/07/22 11:57:09;;;;;;;7.70;4.47;;;23.20;1.00;;;;;;5118523;28;20169;-83
2022/07/22 11:59:36;;;;;;;9.83;5.00;;;22.90;1.00;;;;;;5119996;28;20170;-83
2022/07/22 12:02:03;;;;;;;6.17;4.70;;;22.80;1.00;;;;;;5101461;28;20174;-83
2022/07/22 12:04:31;;;;;;;8.00;5.03;;;22.70;1.00;;;;;;5100872;28;20698;-83
2022/07/22 12:06:59;;;;;;;6.17;4.60;;;22.60;1.00;;;;;;5100202;28;20169;-82
2022/07/22 12:09:28;;;;;;;6.83;4.80;;;22.60;1.00;;;;;;5101314;28;20212;-83
2022/07/22 12:11:57;;;;;;;5.90;4.40;;;22.80;1.00;;;;;;5118734;28;20559;-82
2022/07/22 12:14:32;;;;;;;10.00;5.60;;;23.00;1.00;;;;;;5119743;28;20264;-83
2022/07/22 12:17:06;;;;;;;8.97;5.33;;;23.50;1.00;;;;;;5084049;28;20238;-82
2022/07/22 12:19:33;;;;;;;6.13;4.73;;;23.60;1.00;;;;;;5101830;28;20281;-82
2022/07/22 12:22:00;;;;;;;8.63;5.37;;;23.60;1.00;;;;;;5103384;28;20175;-82
2022/07/22 12:24:34;;;;;;;6.83;5.13;;;23.60;1.00;;;;;;5124394;28;20230;-82
2022/07/22 12:27:08;;;;;;;9.20;5.10;;;23.70;1.00;;;;;;5114515;28;20285;-82
2022/07/22 12:29:37;;;;;;;8.43;5.37;;;24.00;1.00;;;;;;5112948;28;20244;-83
2022/07/22 12:32:14;;;;;;;8.30;4.93;;;24.00;1.00;;;;;;5100426;28;20175;-82
2022/07/22 12:34:42;;;;;;;9.03;4.83;;;23.70;1.00;;;;;;5132391;28;20237;-82
2022/07/22 12:37:18;;;;;;;6.97;4.97;;;23.70;1.00;;;;;;5120342;28;20175;-82
2022/07/22 12:40:05;;;;;;;6.73;4.77;;;23.70;1.00;;;;;;5124455;28;20162;-83
2022/07/22 12:42:39;;;;;;;7.13;4.80;;;23.60;1.00;;;;;;5099660;28;20173;-83
2022/07/22 12:45:11;;;;;;;7.23;5.00;;;23.40;1.00;;;;;;5118945;28;20175;-83
2022/07/22 12:47:47;;;;;;;8.53;5.03;;;23.10;1.00;;;;;;5123321;28;20229;-82